Latest Weather Observations for Fitzroy Crossing

IDW60801

Issued at 6:53 pm WST Thursday 17 January 2019 (issued every 10 minutes, with the page automatically refreshed every 10 minutes)

About weather observations | Map of weather stations | Latest weather observations for WA | Other Formats
Station Details ID: 003093 Name: FITZROY CROSSING AERO Lat: -18.18 Lon: 125.56 Height: 114.5 m
Data from the previous 72 hours. | See also: Recent months at Fitzroy Crossing
Date/Time
WST
Temp
°C
App
Temp
°C
Dew
Point
°C
Rel
Hum
%
Delta-T
°C
Wind Press
QNH
hPa
Press
MSL
hPa
Rain since
9am
mm
Dir  Spd
km/h
Gust
km/h
Spd
kts
Gust
kts
17/06:30pm 33.0 32.2 20.9 49 8.2 NNW 26 35 14 19 1004.3 1003.4 3.8
17/06:10pm 33.5 32.4 21.0 48 8.4 NNW 28 44 15 24 1003.7 1002.8 3.8
17/06:00pm 34.7 38.3 22.4 48 8.5 NNW 7 22 4 12 1003.2 1002.3 3.8
17/05:30pm 33.7 37.7 23.1 54 7.4 WSW 7 11 4 6 1002.6 1001.7 3.8
17/05:00pm 32.7 36.3 23.1 57 6.7 WSW 9 13 5 7 1002.6 1001.7 3.8
17/04:34pm 33.4 34.6 21.5 49 8.1 SSW 17 52 9 28 1002.9 1002.0 3.8
17/04:30pm 34.3 39.1 25.1 58 6.6 WSW 9 19 5 10 1002.7 1001.8 3.8
17/04:09pm 32.2 31.0 22.6 57 6.6 SSW 33 85 18 46 1002.3 1001.4 3.8
17/04:04pm 26.9 23.4 17.9 57 5.7 S 33 85 18 46 1003.3 1002.4 3.0
17/04:01pm 24.6 21.2 14.7 54 5.9 S 26 85 14 46 1002.4 1001.5 0.6
17/04:00pm 29.6 28.2 17.1 47 7.9 S 20 85 11 46 1002.4 1001.5 0.0
17/03:59pm 35.0 35.2 18.6 38 10.8 S 15 52 8 28 1002.4 1001.5 0.0
17/03:30pm 40.5 41.8 18.4 27 14.7 SSW 9 17 5 9 1002.6 1001.7 0.0
17/03:00pm 39.0 39.5 18.3 30 13.7 SE 13 20 7 11 1002.7 1001.8 0.0
17/02:30pm 39.7 40.6 18.3 28 14.2 SSE 11 24 6 13 1003.2 1002.3 0.0
17/02:00pm 40.1 41.4 19.2 29 14.1 SE 11 17 6 9 1003.6 1002.7 0.0
17/01:30pm 39.6 40.0 18.2 28 14.2 S 13 28 7 15 1004.2 1003.3 0.0
17/01:00pm 40.5 41.1 19.5 29 14.2 SW 15 24 8 13 1005.1 1004.1 0.0
17/12:30pm 37.1 38.3 20.0 37 11.5 SSE 13 24 7 13 1005.7 1004.7 0.0
17/12:00pm 38.2 39.4 20.0 34 12.3 SW 13 26 7 14 1006.3 1005.4 0.0
17/11:30am 38.6 39.4 21.3 36 11.9 S 19 28 10 15 1007.0 1006.1 0.0
17/11:00am 36.5 38.1 20.7 39 10.7 S 13 19 7 10 1007.6 1006.7 0.0
17/10:30am 36.4 37.0 21.0 40 10.5 SSW 19 28 10 15 1008.3 1007.4 0.0
17/10:00am 35.3 37.1 21.9 45 9.2 S 15 26 8 14 1008.8 1007.9 0.0
17/09:30am 34.7 35.5 21.7 46 8.9 SW 20 26 11 14 1009.1 1008.2 0.0
17/09:00am 33.9 35.3 21.0 47 8.7 SSW 15 20 8 11 1009.4 1008.5 0.0
17/08:30am 32.7 33.8 21.2 50 7.8 SW 17 26 9 14 1009.9 1009.0 0.0
17/08:00am 31.0 31.8 20.6 54 7.0 SSW 17 22 9 12 1010.0 1009.1 0.0
17/07:30am 31.1 30.2 20.7 54 7.0 SW 26 33 14 18 1010.1 1009.2 0.0
17/07:00am 30.4 31.5 22.0 60 5.7 WSW 19 24 10 13 1009.7 1008.8 0.0
17/06:30am 29.3 31.6 22.8 68 4.4 WNW 15 19 8 10 1009.1 1008.2 0.0
17/06:00am 28.6 31.9 22.6 70 4.1 W 9 13 5 7 1008.5 1007.6 0.0
17/05:30am 27.8 31.3 22.1 71 3.9 WNW 7 11 4 6 1008.1 1007.2 0.0
17/05:00am 27.9 30.9 21.9 70 4.1 W 9 13 5 7 1007.0 1006.1 0.0
17/04:30am 28.2 30.3 21.7 68 4.4 W 13 15 7 8 1006.8 1005.9 0.0
17/04:00am 28.4 30.0 21.4 66 4.7 WNW 15 19 8 10 1006.3 1005.4 0.0
17/03:30am 28.5 29.6 21.3 65 4.8 WNW 17 22 9 12 1006.2 1005.3 0.0
17/03:00am 28.7 29.9 21.5 65 4.8 NW 17 20 9 11 1006.5 1005.6 0.0
17/02:30am 28.9 29.7 21.7 65 4.9 WNW 20 26 11 14 1006.4 1005.5 0.0
17/02:00am 29.2 30.0 21.7 64 5.1 WNW 20 32 11 17 1006.5 1005.6 0.0
17/01:30am 29.4 30.6 21.4 62 5.4 WNW 17 20 9 11 1006.9 1006.0 0.0
17/01:00am 29.6 30.4 21.3 61 5.6 WNW 19 24 10 13 1007.5 1006.6 0.0
17/12:30am 29.7 30.8 20.5 57 6.1 NW 15 20 8 11 1007.8 1006.9 0.0
17/12:00am 30.1 30.6 20.1 55 6.6 NW 17 24 9 13 1007.6 1006.7 0.0
 
Date/Time
WST
Temp
°C
App
Temp
°C
Dew
Point
°C
Rel
Hum
%
Delta-T
°C
Wind Press
QNH
hPa
Press
MSL
hPa
Rain since
9am
mm
Dir  Spd
km/h
Gust
km/h
Spd
kts
Gust
kts
16/11:30pm 30.6 30.6 19.0 50 7.6 NNW 17 20 9 11 1008.0 1007.1 0.0
16/11:00pm 30.8 30.5 18.2 47 8.1 NW 17 20 9 11 1008.2 1007.3 0.0
16/10:30pm 30.9 31.8 18.3 47 8.1 NW 11 15 6 8 1008.3 1007.4 0.0
16/10:00pm 31.4 32.4 16.9 41 9.2 N 7 9 4 5 1008.1 1007.2 0.0
16/09:30pm 32.1 33.1 16.8 40 9.7 NE 7 9 4 5 1008.1 1007.2 0.0
16/09:00pm 31.9 33.2 17.0 41 9.5 E 6 9 3 5 1008.0 1007.1 0.0
16/08:30pm 31.7 31.3 17.2 42 9.3 NW 15 20 8 11 1007.4 1006.5 0.0
16/08:00pm 31.9 32.4 16.6 39 9.7 S 9 11 5 6 1005.9 1004.9 0.0
16/07:30pm 32.1 32.2 16.4 39 9.9 SSW 11 13 6 7 1005.1 1004.1 0.0
16/07:00pm 32.0 32.1 17.5 42 9.3 S 13 19 7 10 1004.5 1003.6 0.0
16/06:30pm 33.4 32.8 17.5 38 10.2 SE 17 28 9 15 1004.9 1003.9 0.0
16/06:00pm 34.3 34.8 18.3 38 10.5 E 13 20 7 11 1005.1 1004.1 0.0
16/05:30pm 36.2 35.5 18.3 34 11.8 ENE 19 43 10 23 1004.2 1003.3 0.0
16/05:00pm 36.1 34.1 17.3 33 12.2 NNE 24 44 13 24 1004.3 1003.4 0.0
16/04:30pm 40.0 39.5 14.9 22 15.9 ESE 11 17 6 9 1003.7 1002.8 0.0
16/04:00pm 39.3 38.7 15.6 24 15.2 NE 13 20 7 11 1003.2 1002.3 0.0
16/03:30pm 40.1 39.7 16.3 24 15.4 ENE 13 19 7 10 1002.7 1001.8 0.0
16/03:00pm 40.4 40.7 15.9 23 15.8 SE 9 17 5 9 1003.2 1002.3 0.0
16/02:30pm 40.7 40.7 16.2 24 15.9 E 11 26 6 14 1004.1 1003.2 0.0
16/02:00pm 39.6 39.6 17.1 26 14.7 W 13 17 7 9 1004.3 1003.4 0.0
16/01:30pm 39.4 39.2 17.5 27 14.4 SSE 15 22 8 12 1005.0 1004.0 0.0
16/01:00pm 39.1 40.0 18.3 29 13.8 SE 11 20 6 11 1005.8 1004.8 0.0
16/12:30pm 38.4 40.2 18.8 32 13.0 WNW 7 15 4 8 1006.4 1005.5 0.0
16/12:00pm 37.6 38.4 19.0 33 12.4 SSE 13 24 7 13 1007.3 1006.4 0.0
16/11:30am 36.9 38.8 18.9 34 11.9 SW 7 17 4 9 1007.7 1006.8 0.0
16/11:00am 36.5 37.5 19.4 36 11.4 WSW 13 24 7 13 1008.1 1007.2 0.0
16/10:30am 36.6 38.6 20.0 38 11.2 WSW 9 20 5 11 1008.6 1007.7 0.0
16/10:00am 35.1 35.9 20.6 42 9.8 SSW 17 20 9 11 1008.9 1008.0 0.0
16/09:30am 34.5 36.2 20.1 43 9.6 SW 11 20 6 11 1008.9 1008.0 0.0
16/09:00am 33.5 36.0 20.3 46 8.8 WNW 7 22 4 12 1009.1 1008.2 0.0
16/08:30am 33.0 34.3 20.9 49 8.2 WSW 15 22 8 12 1009.3 1008.4 0.0
16/08:00am 32.1 33.1 21.0 52 7.5 WNW 17 30 9 16 1009.2 1008.3 0.0
16/07:30am 31.2 33.2 20.8 54 7.0 WNW 11 20 6 11 1009.0 1008.1 0.0
16/07:00am 30.4 31.5 21.2 58 6.2 W 17 24 9 13 1008.8 1007.9 0.0
16/06:30am 29.3 30.7 21.0 61 5.5 W 15 24 8 13 1008.7 1007.8 0.0
16/06:00am 28.6 31.1 21.1 64 5.0 WSW 9 13 5 7 1008.3 1007.4 0.0
16/05:30am 27.7 30.2 21.0 67 4.5 WSW 9 11 5 6 1007.8 1006.9 0.0
16/05:00am 27.5 30.5 20.8 67 4.5 WSW 6 7 3 4 1007.5 1006.6 0.0
16/04:30am 27.7 29.9 20.5 65 4.8 W 9 11 5 6 1006.9 1006.0 0.0
16/04:00am 27.9 29.9 20.7 65 4.8 WNW 11 13 6 7 1006.7 1005.8 0.0
16/03:30am 28.2 30.5 20.7 63 5.0 WNW 9 13 5 7 1006.6 1005.7 0.0
16/03:00am 28.3 30.2 20.6 63 5.1 NW 11 15 6 8 1006.3 1005.4 0.0
16/02:30am 28.8 30.4 20.8 62 5.3 NW 13 19 7 10 1006.2 1005.3 0.0
16/02:00am 28.9 30.1 20.6 61 5.5 NW 15 17 8 9 1006.1 1005.2 0.0
16/01:30am 29.5 30.4 20.9 60 5.7 NW 17 22 9 12 1006.1 1005.2 0.0
16/01:00am 29.8 30.2 20.9 59 6.0 NW 20 26 11 14 1006.1 1005.2 0.0
16/12:30am 30.2 30.8 21.3 59 6.0 NW 20 28 11 15 1006.1 1005.2 0.0
16/12:00am 30.3 31.1 21.7 60 5.8 NW 20 26 11 14 1006.2 1005.3 0.0
 
Date/Time
WST
Temp
°C
App
Temp
°C
Dew
Point
°C
Rel
Hum
%
Delta-T
°C
Wind Press
QNH
hPa
Press
MSL
hPa
Rain since
9am
mm
Dir  Spd
km/h
Gust
km/h
Spd
kts
Gust
kts
15/11:30pm 30.7 30.4 21.8 59 6.0 NW 26 35 14 19 1006.2 1005.3 0.0
15/11:00pm 31.3 29.7 21.5 56 6.6 NW 32 39 17 21 1006.9 1006.0 0.0
15/10:30pm 32.0 31.1 19.9 48 8.0 NW 24 41 13 22 1006.9 1006.0 0.0
15/10:00pm 32.9 31.8 18.7 43 9.3 NW 22 30 12 16 1006.7 1005.8 0.0
15/09:30pm 33.2 34.4 18.2 41 9.8 N 9 15 5 8 1006.1 1005.2 0.0
15/09:00pm 32.9 34.2 17.5 39 9.9 NW 7 13 4 7 1005.8 1004.8 0.0
15/08:30pm 33.5 34.6 18.0 39 10.1 N 9 11 5 6 1005.4 1004.4 0.0
15/08:00pm 34.3 35.2 17.5 36 10.9 N 9 11 5 6 1005.2 1004.2 0.0
15/07:30pm 35.2 36.6 17.9 36 11.3 NNW 7 9 4 5 1005.0 1004.0 0.0
15/07:00pm 35.6 37.0 17.8 35 11.6 N 7 9 4 5 1004.4 1003.5 0.0
15/06:30pm 36.0 37.5 15.7 30 12.9 NNE 2 6 1 3 1004.3 1003.4 0.0
15/06:00pm 36.3 36.8 14.9 28 13.5 E 6 7 3 4 1004.0 1003.1 0.0
15/05:30pm 37.3 36.0 17.3 30 13.0 E 20 48 11 26 1003.5 1002.6 0.0
15/05:26pm 37.2 35.7 16.7 29 13.2 E 20 48 11 26 1003.8 1002.9 0.0
15/05:00pm 37.5 35.8 18.0 31 12.8 N 24 33 13 18 1003.2 1002.3 0.0
15/04:30pm 37.8 35.2 17.7 30 13.2 N 28 43 15 23 1003.3 1002.4 0.0
15/04:00pm 40.2 38.6 16.4 25 15.5 ENE 20 28 11 15 1003.1 1002.2 0.0
15/03:30pm 40.7 38.8 16.8 24 15.6 E 22 39 12 21 1003.2 1002.3 0.0
15/03:00pm 40.2 39.0 17.0 25 15.2 E 19 30 10 16 1003.7 1002.8 0.0
15/02:30pm 40.8 41.2 18.1 26 15.1 E 13 24 7 13 1004.0 1003.1 0.0
15/02:00pm 40.0 38.6 18.0 27 14.6 ESE 22 32 12 17 1004.5 1003.6 0.0
15/01:30pm 40.9 40.3 17.6 25 15.4 ENE 17 28 9 15 1005.0 1004.0 0.0
15/01:00pm 40.0 40.1 17.4 26 14.9 E 13 24 7 13 1005.2 1004.2 0.0
15/12:30pm 39.7 40.3 17.8 28 14.4 E 11 20 6 11 1005.5 1004.5 0.0
15/12:00pm 39.3 39.8 17.4 27 14.4 E 11 19 6 10 1005.8 1004.8 0.0
15/11:30am 39.1 38.2 17.8 28 14.0 ESE 19 24 10 13 1006.2 1005.3 0.0
15/11:00am 38.1 39.3 19.0 32 12.8 WSW 11 15 6 8 1006.5 1005.6 0.0
15/10:30am 36.9 38.8 19.8 36 11.5 SSW 9 15 5 8 1007.2 1006.3 0.0
15/10:00am 37.0 39.2 20.3 37 11.3 SSW 9 17 5 9 1007.8 1006.9 0.0
15/09:30am 35.6 38.1 19.9 39 10.5 SW 6 11 3 6 1008.0 1007.1 0.0
15/09:00am 34.5 36.9 19.7 41 9.9 NE 6 15 3 8 1008.2 1007.3 0.0
15/08:30am 33.8 36.8 20.9 46 8.7 WSW 6 11 3 6 1008.2 1007.3 0.0
15/08:00am 33.2 35.7 21.0 48 8.2 W 9 17 5 9 1008.4 1007.5 0.0
15/07:30am 32.1 34.6 21.0 52 7.5 WNW 9 15 5 8 1008.2 1007.3 0.0
15/07:00am 31.3 34.1 20.9 54 7.0 W 7 13 4 7 1008.3 1007.4 0.0
15/06:30am 29.7 32.6 21.1 60 5.8 WSW 7 13 4 7 1008.2 1007.3 0.0
15/06:00am 27.9 31.7 21.0 66 4.6 SW 2 7 1 4 1008.0 1007.1 0.0
15/05:30am 26.9 30.9 20.5 68 4.2 CALM 0 0 0 0 1007.5 1006.6 0.0
15/05:00am 27.0 31.0 20.6 68 4.2 CALM 0 0 0 0 1007.3 1006.4 0.0
15/04:30am 27.4 31.5 20.7 67 4.4 CALM 0 0 0 0 1006.5 1005.6 0.0
15/04:00am 27.3 31.2 20.4 66 4.6 CALM 0 0 0 0 1006.0 1005.0 0.0
15/03:30am 27.7 31.6 20.3 64 4.9 CALM 0 0 0 0 1005.7 1004.7 0.0
15/03:00am 28.0 31.9 20.3 63 5.1 CALM 0 0 0 0 1005.7 1004.7 0.0
15/02:30am 28.0 30.7 20.3 63 5.1 WSW 6 7 3 4 1005.7 1004.7 0.0
15/02:00am 28.3 30.6 19.8 60 5.6 W 7 7 4 4 1005.6 1004.6 0.0
15/01:30am 28.8 31.3 20.3 60 5.6 W 7 9 4 5 1005.7 1004.7 0.0
15/01:00am 28.8 31.3 20.3 60 5.6 W 7 9 4 5 1005.9 1004.9 0.0
15/12:30am 29.0 31.5 19.9 58 6.0 WNW 6 7 3 4 1005.9 1004.9 0.0
15/12:00am 29.2 31.4 19.5 56 6.4 NW 7 9 4 5 1006.0 1005.0 0.0
 
Date/Time
WST
Temp
°C
App
Temp
°C
Dew
Point
°C
Rel
Hum
%
Delta-T
°C
Wind Press
QNH
hPa
Press
MSL
hPa
Rain since
9am
mm
Dir  Spd
km/h
Gust
km/h
Spd
kts
Gust
kts
14/11:30pm 29.9 32.0 19.3 53 6.9 W 7 11 4 6 1006.3 1005.4 0.0
14/11:00pm 30.2 31.5 17.6 46 8.1 NW 7 9 4 5 1006.3 1005.4 0.0
14/10:30pm 31.1 32.7 17.8 45 8.5 NW 6 11 3 6 1006.3 1005.4 0.0
14/10:00pm 31.3 33.3 17.9 44 8.6 N 4 9 2 5 1006.2 1005.3 0.0
14/09:30pm 32.1 33.2 17.9 42 9.2 NE 9 13 5 7 1006.1 1005.2 0.0
14/09:00pm 32.5 33.8 17.5 40 9.7 NNE 7 9 4 5 1005.9 1004.9 0.0
14/08:30pm 32.7 33.3 17.7 40 9.7 N 11 13 6 7 1005.9 1004.9 0.0
14/08:00pm 33.3 33.1 17.5 39 10.2 N 15 20 8 11 1005.5 1004.5 0.0
14/07:30pm 34.5 35.5 16.8 34 11.3 NNE 7 11 4 6 1005.0 1004.0 0.0
14/07:00pm 34.7 35.8 17.0 35 11.4 NE 7 13 4 7 1004.4 1003.5 0.0

Other Formats:

Comma delimited format used in spreadsheet applications
http://www.bom.gov.au/fwo/IDW60801/IDW60801.94206.axf

JavaScript Object Notation format (JSON) in row-major order
http://www.bom.gov.au/fwo/IDW60801/IDW60801.94206.json